createdAt,value
2023-05-19T00:02:35.659Z,9.0
2023-05-19T00:05:16.447Z,9.0
2023-05-19T00:07:47.060Z,9.0
2023-05-19T00:10:17.666Z,9.1
2023-05-19T00:12:48.238Z,9.1
2023-05-19T00:17:48.894Z,9.1
2023-05-19T00:20:29.633Z,9.1
2023-05-19T00:23:00.195Z,9.0
2023-05-19T00:25:30.772Z,8.9
2023-05-19T00:28:01.326Z,8.9
2023-05-19T00:30:32.053Z,8.8
2023-05-19T00:33:02.935Z,8.8
2023-05-19T00:35:43.597Z,8.7
2023-05-19T00:38:14.181Z,8.8
2023-05-19T00:40:44.758Z,8.7
2023-05-19T00:43:15.325Z,8.6
2023-05-19T00:45:45.879Z,8.6
2023-05-19T00:48:16.591Z,8.7
2023-05-19T00:50:57.177Z,8.6
2023-05-19T00:53:27.751Z,8.7
2023-05-19T00:58:28.321Z,8.6
2023-05-19T01:00:58.897Z,8.6
2023-05-19T01:03:29.587Z,8.6
2023-05-19T01:06:10.374Z,8.5
2023-05-19T01:08:41.025Z,8.5
2023-05-19T01:11:11.615Z,8.4
2023-05-19T01:13:42.408Z,8.4
2023-05-19T01:16:13.172Z,8.3
2023-05-19T01:18:54.016Z,8.2
2023-05-19T01:21:24.682Z,8.1
2023-05-19T01:23:55.256Z,8.0
2023-05-19T01:26:25.842Z,7.9
2023-05-19T01:28:56.389Z,7.8
2023-05-19T01:31:26.957Z,7.6
2023-05-19T01:34:07.692Z,7.5
2023-05-19T01:39:08.357Z,7.2
2023-05-19T01:41:38.972Z,7.2
2023-05-19T01:44:09.528Z,7.1
2023-05-19T01:46:40.085Z,7.0
2023-05-19T01:49:20.636Z,6.8
2023-05-19T01:51:51.276Z,6.6
2023-05-19T01:54:21.845Z,6.5
2023-05-19T01:56:52.488Z,6.4
2023-05-19T01:59:23.075Z,6.3
2023-05-19T02:01:53.657Z,6.3
2023-05-19T02:04:34.240Z,6.2
2023-05-19T02:07:05.157Z,6.2
2023-05-19T02:09:35.796Z,6.1
2023-05-19T02:12:06.373Z,6.0
2023-05-19T02:14:36.947Z,6.0
2023-05-19T02:19:57.515Z,5.9
2023-05-19T02:22:28.053Z,5.8
2023-05-19T02:24:58.640Z,5.8
2023-05-19T02:27:29.212Z,5.8
2023-05-19T02:29:59.778Z,5.7
2023-05-19T02:35:10.354Z,5.7
2023-05-19T02:37:40.900Z,5.6
2023-05-19T02:40:11.606Z,5.6
2023-05-19T02:42:42.388Z,5.5
2023-05-19T02:45:12.948Z,5.5
2023-05-19T02:47:53.761Z,5.5
2023-05-19T02:50:24.579Z,5.4
2023-05-19T02:52:55.122Z,5.4
2023-05-19T02:55:25.695Z,5.4
2023-05-19T03:00:26.264Z,5.4
2023-05-19T03:03:06.867Z,5.5
2023-05-19T03:05:37.609Z,5.4
2023-05-19T03:08:08.145Z,5.4
2023-05-19T03:10:38.705Z,5.5
2023-05-19T03:13:09.239Z,5.5
2023-05-19T03:15:39.832Z,5.6
2023-05-19T03:18:20.512Z,5.6
2023-05-19T03:20:51.215Z,5.8
2023-05-19T03:23:21.796Z,5.9
2023-05-19T03:25:52.361Z,6.0
2023-05-19T03:28:22.892Z,6.0
2023-05-19T03:31:03.446Z,6.1
2023-05-19T03:33:34.073Z,6.1
2023-05-19T03:36:04.850Z,6.2
2023-05-19T03:41:05.420Z,6.2
2023-05-19T03:43:35.973Z,6.3
2023-05-19T03:46:16.556Z,6.4
2023-05-19T03:48:47.279Z,6.4
2023-05-19T03:51:17.867Z,6.4
2023-05-19T03:53:48.460Z,6.4
2023-05-19T03:56:18.989Z,6.5
2023-05-19T03:58:49.557Z,6.5
2023-05-19T04:01:30.126Z,6.5
2023-05-19T04:04:00.705Z,6.6
2023-05-19T04:06:31.472Z,6.6
2023-05-19T04:09:02.041Z,6.6
2023-05-19T04:11:32.634Z,6.7
2023-05-19T04:14:03.251Z,6.6
2023-05-19T04:16:43.827Z,6.6
2023-05-19T04:21:54.415Z,6.7
2023-05-19T04:24:25.002Z,6.7
2023-05-19T04:26:55.605Z,6.7
2023-05-19T04:29:36.255Z,6.7
2023-05-19T04:32:06.872Z,6.8
2023-05-19T04:34:37.495Z,6.8
2023-05-19T04:37:08.046Z,6.8
2023-05-19T04:39:38.704Z,6.8
2023-05-19T04:42:09.260Z,6.8
2023-05-19T04:44:50.078Z,6.9
2023-05-19T04:47:20.675Z,6.9
2023-05-19T04:49:51.309Z,7.0
2023-05-19T04:52:21.909Z,7.0
2023-05-19T04:54:52.524Z,7.1
2023-05-19T04:57:23.124Z,7.1
2023-05-19T05:02:33.675Z,7.2
2023-05-19T05:05:04.417Z,7.3
2023-05-19T05:07:34.994Z,7.4
2023-05-19T05:10:05.557Z,7.4
2023-05-19T05:12:36.272Z,7.4
2023-05-19T05:15:16.842Z,7.5
2023-05-19T05:20:17.455Z,7.6
2023-05-19T05:22:47.999Z,7.6
2023-05-19T05:25:18.598Z,7.7
2023-05-19T05:27:49.189Z,7.8
2023-05-19T05:30:29.762Z,7.8
2023-05-19T05:33:00.382Z,7.9
2023-05-19T05:35:31.593Z,7.9
2023-05-19T05:38:02.353Z,8.0
2023-05-19T05:43:12.929Z,8.1
2023-05-19T05:45:43.498Z,8.3
2023-05-19T05:48:14.376Z,8.3
2023-05-19T05:50:44.993Z,8.3
2023-05-19T05:53:15.560Z,8.3
2023-05-19T05:55:46.120Z,8.4
2023-05-19T05:58:26.744Z,8.5
2023-05-19T06:00:57.851Z,8.6
2023-05-19T06:03:28.607Z,8.7
2023-05-19T06:05:59.466Z,8.7
2023-05-19T06:08:30.057Z,8.8
2023-05-19T06:11:00.644Z,8.9
2023-05-19T06:13:41.228Z,8.9
2023-05-19T06:16:11.846Z,9.1
2023-05-19T06:18:42.620Z,9.2
2023-05-19T06:23:43.402Z,9.3
2023-05-19T06:26:13.970Z,9.4
2023-05-19T06:28:54.505Z,9.5
2023-05-19T06:31:25.102Z,9.6
2023-05-19T06:33:55.792Z,9.8
2023-05-19T06:36:26.350Z,10.0
2023-05-19T06:38:57.161Z,10.0
2023-05-19T06:41:37.719Z,10.0
2023-05-19T06:44:08.264Z,10.0
2023-05-19T06:46:40.904Z,10.1
2023-05-19T06:49:11.552Z,10.0
2023-05-19T06:51:42.149Z,10.0
2023-05-19T06:54:12.740Z,10.0
2023-05-19T06:56:53.312Z,10.0
2023-05-19T06:59:23.956Z,10.2
2023-05-19T07:04:24.544Z,10.4
2023-05-19T07:06:55.146Z,10.8
2023-05-19T07:09:35.778Z,10.8
2023-05-19T07:12:16.390Z,10.6
2023-05-19T07:14:47.015Z,10.6
2023-05-19T07:17:17.623Z,10.7
2023-05-19T07:19:48.287Z,10.8
2023-05-19T07:22:18.857Z,11.0
2023-05-19T07:24:49.545Z,10.9
2023-05-19T07:27:30.106Z,10.8
2023-05-19T07:30:00.674Z,11.0
2023-05-19T07:32:31.224Z,11.1
2023-05-19T07:35:01.967Z,11.1
2023-05-19T07:37:32.528Z,11.1
2023-05-19T07:40:03.149Z,11.0
2023-05-19T07:45:13.753Z,11.2
2023-05-19T07:47:44.413Z,11.3
2023-05-19T07:50:15.114Z,11.6
2023-05-19T07:52:45.714Z,11.7
2023-05-19T07:55:26.359Z,11.7
2023-05-19T07:57:56.920Z,11.7
2023-05-19T08:00:27.447Z,11.8
2023-05-19T08:02:58.202Z,11.8
2023-05-19T08:05:29.254Z,11.6
2023-05-19T08:07:59.812Z,11.5
2023-05-19T08:10:40.369Z,11.6
2023-05-19T08:13:10.977Z,11.5
2023-05-19T08:15:41.536Z,11.5
2023-05-19T08:18:12.325Z,11.5
2023-05-19T08:20:42.950Z,11.5
2023-05-19T08:25:53.566Z,11.3
2023-05-19T08:28:24.107Z,11.3
2023-05-19T08:30:54.692Z,11.2
2023-05-19T08:33:25.318Z,11.2
2023-05-19T08:35:55.920Z,11.2
2023-05-19T08:38:26.581Z,11.3
2023-05-19T08:41:07.271Z,11.2
2023-05-19T08:43:37.881Z,11.3
2023-05-19T08:46:08.497Z,11.2
2023-05-19T08:48:39.201Z,11.3
2023-05-19T08:51:09.756Z,11.3
2023-05-19T08:53:50.338Z,11.5
2023-05-19T08:56:20.899Z,11.6
2023-05-19T08:58:51.469Z,11.5
2023-05-19T09:01:22.101Z,11.6
2023-05-19T09:06:22.770Z,11.9
2023-05-19T09:09:03.324Z,12.0
2023-05-19T09:11:33.981Z,12.0
2023-05-19T09:14:04.546Z,12.0
2023-05-19T09:16:35.222Z,12.1
2023-05-19T09:19:05.929Z,12.1
2023-05-19T09:21:36.765Z,12.2
2023-05-19T09:24:17.354Z,12.1
2023-05-19T09:26:48.112Z,12.3
2023-05-19T09:29:20.466Z,12.4
2023-05-19T09:31:51.064Z,12.6
2023-05-19T09:34:21.899Z,12.4
2023-05-19T09:36:52.491Z,12.2
2023-05-19T09:39:33.063Z,12.0
2023-05-19T09:42:03.655Z,12.2
2023-05-19T09:47:04.375Z,12.2
2023-05-19T09:49:35.041Z,12.1
2023-05-19T09:52:05.592Z,12.1
2023-05-19T09:54:46.212Z,12.3
2023-05-19T09:57:26.813Z,12.4
2023-05-19T09:59:57.569Z,12.4
2023-05-19T10:02:28.281Z,12.5
2023-05-19T10:04:59.020Z,12.6
2023-05-19T10:07:39.768Z,12.4
2023-05-19T10:10:10.383Z,12.4
2023-05-19T10:12:40.935Z,12.7
2023-05-19T10:15:11.492Z,12.8
2023-05-19T10:17:33.917Z,13.1
2023-05-19T10:20:04.573Z,12.9
2023-05-19T10:22:45.132Z,12.6
2023-05-19T10:27:55.739Z,12.8
2023-05-19T10:30:26.336Z,12.9
2023-05-19T10:32:56.917Z,13.1
2023-05-19T10:35:27.720Z,13.2
2023-05-19T10:38:08.693Z,13.1
2023-05-19T10:40:39.335Z,13.1
2023-05-19T10:43:09.889Z,13.3
2023-05-19T10:45:40.635Z,13.5
2023-05-19T10:48:11.281Z,13.6
2023-05-19T10:50:41.882Z,13.7
2023-05-19T10:53:22.439Z,13.6
2023-05-19T10:55:53.024Z,13.7
2023-05-19T10:58:23.584Z,13.9
2023-05-19T11:00:54.151Z,14.0
2023-05-19T11:03:24.709Z,13.8
2023-05-19T11:08:35.357Z,14.0
2023-05-19T11:11:05.908Z,14.0
2023-05-19T11:13:36.682Z,13.9
2023-05-19T11:16:07.393Z,14.0
2023-05-19T11:18:38.119Z,14.2
2023-05-19T11:21:18.840Z,14.2
2023-05-19T11:23:49.522Z,14.1
2023-05-19T11:26:20.149Z,14.3
2023-05-19T11:28:50.734Z,14.3
2023-05-19T11:31:21.370Z,14.6
2023-05-19T11:33:52.020Z,14.7
2023-05-19T11:36:32.585Z,15.1
2023-05-19T11:39:03.239Z,15.2
2023-05-19T11:41:33.864Z,15.4
2023-05-19T11:44:04.420Z,15.0
2023-05-19T11:49:05.013Z,15.2
2023-05-19T11:51:45.614Z,15.5
2023-05-19T11:54:16.176Z,15.6
2023-05-19T11:56:46.918Z,15.6
2023-05-19T11:59:17.480Z,16.3
2023-05-19T12:01:48.047Z,16.2
2023-05-19T12:04:28.673Z,16.8
2023-05-19T12:06:59.353Z,17.1
2023-05-19T12:09:29.942Z,16.5
2023-05-19T12:12:00.639Z,16.0
2023-05-19T12:14:31.224Z,16.2
2023-05-19T12:17:01.785Z,16.1
2023-05-19T12:19:42.436Z,16.3
2023-05-19T12:22:13.006Z,16.1
2023-05-19T12:24:43.582Z,16.1
2023-05-19T12:29:44.250Z,16.3
2023-05-19T12:32:14.832Z,16.2
2023-05-19T12:34:55.600Z,16.2
2023-05-19T12:37:26.119Z,16.1
2023-05-19T12:39:56.695Z,15.8
2023-05-19T12:42:27.287Z,15.8
2023-05-19T12:45:07.839Z,16.0
2023-05-19T12:47:29.021Z,16.1
2023-05-19T12:50:09.899Z,16.0
2023-05-19T12:52:40.888Z,16.1
2023-05-19T12:55:12.106Z,16.2
2023-05-19T12:57:42.781Z,16.0
2023-05-19T13:00:13.435Z,15.9
2023-05-19T13:02:44.605Z,16.0
2023-05-19T13:05:26.011Z,16.1
2023-05-19T13:10:26.599Z,16.0
2023-05-19T13:12:57.194Z,16.0
2023-05-19T13:15:27.763Z,15.9
2023-05-19T13:18:08.510Z,16.0
2023-05-19T13:20:39.090Z,16.1
2023-05-19T13:23:09.698Z,16.2
2023-05-19T13:25:50.277Z,16.1
2023-05-19T13:28:20.820Z,16.2
2023-05-19T13:30:51.459Z,16.0
2023-05-19T13:33:32.176Z,16.0
2023-05-19T13:36:02.746Z,15.7
2023-05-19T13:38:33.297Z,15.7
2023-05-19T13:41:03.895Z,15.7
2023-05-19T13:43:26.452Z,15.7
2023-05-19T13:45:57.072Z,15.8
2023-05-19T13:51:09.461Z,16.0
2023-05-19T13:53:40.005Z,16.0
2023-05-19T13:56:10.621Z,16.1
2023-05-19T13:58:41.164Z,16.0
2023-05-19T14:01:11.738Z,16.0
2023-05-19T14:03:52.475Z,16.0
2023-05-19T14:06:23.536Z,16.1
2023-05-19T14:08:54.240Z,16.0
2023-05-19T14:11:24.806Z,16.0
2023-05-19T14:13:55.477Z,16.1
2023-05-19T14:16:26.128Z,16.5
2023-05-19T14:19:08.605Z,16.3
2023-05-19T14:21:39.323Z,16.2
2023-05-19T14:24:09.883Z,16.3
2023-05-19T14:26:40.531Z,16.2
2023-05-19T14:31:51.121Z,16.3
2023-05-19T14:34:21.880Z,16.3
2023-05-19T14:36:52.483Z,16.5
2023-05-19T14:39:23.100Z,17.0
2023-05-19T14:41:53.737Z,17.4
2023-05-19T14:44:34.277Z,17.6
2023-05-19T14:47:15.013Z,17.5
2023-05-19T14:49:37.680Z,17.5
2023-05-19T14:52:08.275Z,17.6
2023-05-19T14:54:38.858Z,17.8
2023-05-19T14:57:09.479Z,17.6
2023-05-19T14:59:40.063Z,17.3
2023-05-19T15:02:20.656Z,17.3
2023-05-19T15:04:51.341Z,17.2
2023-05-19T15:07:22.049Z,16.8
2023-05-19T15:12:32.614Z,16.6
2023-05-19T15:15:03.298Z,16.9
2023-05-19T15:17:43.884Z,16.9
2023-05-19T15:20:14.654Z,16.9
2023-05-19T15:22:36.600Z,16.8
2023-05-19T15:25:07.213Z,16.7
2023-05-19T15:27:37.804Z,16.7
2023-05-19T15:30:08.492Z,16.7
2023-05-19T15:32:59.131Z,16.4
2023-05-19T15:35:29.833Z,16.6
2023-05-19T15:38:00.392Z,16.6
2023-05-19T15:40:31.131Z,16.8
2023-05-19T15:43:01.765Z,16.8
2023-05-19T15:45:42.477Z,16.8
2023-05-19T15:48:13.117Z,16.7
2023-05-19T15:53:13.708Z,16.7
2023-05-19T15:55:44.308Z,16.6
2023-05-19T15:58:15.183Z,16.6
2023-05-19T16:00:55.802Z,16.4
2023-05-19T16:03:26.492Z,16.5
2023-05-19T16:05:57.424Z,16.6
2023-05-19T16:08:28.040Z,16.4
2023-05-19T16:10:58.682Z,16.4
2023-05-19T16:13:29.252Z,16.4
2023-05-19T16:16:09.830Z,16.4
2023-05-19T16:18:40.520Z,16.4
2023-05-19T16:21:11.255Z,16.4
2023-05-19T16:23:41.854Z,16.5
2023-05-19T16:26:12.415Z,16.6
2023-05-19T16:28:42.976Z,16.8
2023-05-19T16:33:53.564Z,16.8
2023-05-19T16:36:24.182Z,16.5
2023-05-19T16:38:54.900Z,16.4
2023-05-19T16:41:25.458Z,16.5
2023-05-19T16:44:06.060Z,16.4
2023-05-19T16:46:36.684Z,16.4
2023-05-19T16:49:07.347Z,16.3
2023-05-19T16:51:38.044Z,16.3
2023-05-19T16:54:09.489Z,16.2
2023-05-19T16:56:40.130Z,16.2
2023-05-19T16:59:20.721Z,16.2
2023-05-19T17:01:51.413Z,16.2
2023-05-19T17:04:22.183Z,16.1
2023-05-19T17:06:52.760Z,16.0
2023-05-19T17:09:23.405Z,16.0
2023-05-19T17:14:33.961Z,15.9
2023-05-19T17:17:04.534Z,15.8
2023-05-19T17:19:35.417Z,15.7
2023-05-19T17:22:05.997Z,15.6
2023-05-19T17:24:38.372Z,15.6
2023-05-19T17:27:08.990Z,15.7
2023-05-19T17:29:49.610Z,15.7
2023-05-19T17:32:20.234Z,15.7
2023-05-19T17:34:51.170Z,15.6
2023-05-19T17:37:21.694Z,15.6
2023-05-19T17:39:52.284Z,15.6
2023-05-19T17:42:22.916Z,15.5
2023-05-19T17:45:03.492Z,15.4
2023-05-19T17:47:34.035Z,15.4
2023-05-19T17:50:04.767Z,15.3
2023-05-19T17:55:05.343Z,15.2
2023-05-19T17:57:35.941Z,15.2
2023-05-19T18:00:16.549Z,15.1
2023-05-19T18:02:47.218Z,15.1
2023-05-19T18:05:18.324Z,15.0
2023-05-19T18:07:48.871Z,15.0
2023-05-19T18:10:19.515Z,15.0
2023-05-19T18:12:50.061Z,14.9
2023-05-19T18:15:30.629Z,14.8
2023-05-19T18:18:01.259Z,14.8
2023-05-19T18:20:32.062Z,14.7
2023-05-19T18:23:02.725Z,14.6
2023-05-19T18:25:33.322Z,14.5
2023-05-19T18:28:13.880Z,14.4
2023-05-19T18:30:44.457Z,14.3
2023-05-19T18:35:55.036Z,14.3
2023-05-19T18:38:25.596Z,14.3
2023-05-19T18:40:56.222Z,14.3
2023-05-19T18:43:36.806Z,14.2
2023-05-19T18:46:07.354Z,14.2
2023-05-19T18:48:38.081Z,14.1
2023-05-19T18:51:08.639Z,14.1
2023-05-19T18:53:39.178Z,14.0
2023-05-19T18:56:09.810Z,14.0
2023-05-19T18:58:50.357Z,13.8
2023-05-19T19:01:20.965Z,13.8
2023-05-19T19:03:51.745Z,13.7
2023-05-19T19:06:22.500Z,13.6
2023-05-19T19:08:54.190Z,13.6
2023-05-19T19:11:24.762Z,13.6
2023-05-19T19:16:35.372Z,13.4
2023-05-19T19:19:06.255Z,13.3
2023-05-19T19:21:37.140Z,13.2
2023-05-19T19:24:07.725Z,13.2
2023-05-19T19:26:48.312Z,13.1
2023-05-19T19:29:18.885Z,13.0
2023-05-19T19:31:49.585Z,12.9
2023-05-19T19:34:20.429Z,12.9
2023-05-19T19:36:51.014Z,12.9
2023-05-19T19:39:21.679Z,12.8
2023-05-19T19:42:02.337Z,12.8
2023-05-19T19:44:32.945Z,12.7
2023-05-19T19:47:03.606Z,12.6
2023-05-19T19:49:34.278Z,12.6
2023-05-19T19:52:04.853Z,12.5
2023-05-19T19:57:15.537Z,12.4
2023-05-19T19:59:46.100Z,12.3
2023-05-19T20:02:16.807Z,12.2
2023-05-19T20:04:48.433Z,12.0
2023-05-19T20:07:18.991Z,11.9
2023-05-19T20:09:49.588Z,11.8
2023-05-19T20:12:30.168Z,11.6
2023-05-19T20:15:00.929Z,11.6
2023-05-19T20:17:31.528Z,11.5
2023-05-19T20:20:02.221Z,11.3
2023-05-19T20:22:32.801Z,11.3
2023-05-19T20:25:13.405Z,11.2
2023-05-19T20:27:44.247Z,11.2
2023-05-19T20:30:14.829Z,11.2
2023-05-19T20:32:45.631Z,11.2
2023-05-19T20:37:46.319Z,11.2
2023-05-19T20:40:26.970Z,11.1
2023-05-19T20:42:57.704Z,11.0
2023-05-19T20:45:28.314Z,10.9
2023-05-19T20:47:59.156Z,10.9
2023-05-19T20:50:29.824Z,10.8
2023-05-19T20:53:00.388Z,10.8
2023-05-19T20:55:40.952Z,10.7
2023-05-19T20:58:11.669Z,10.6
2023-05-19T21:00:42.277Z,10.5
2023-05-19T21:03:12.993Z,10.4
2023-05-19T21:05:44.093Z,10.4
2023-05-19T21:08:14.650Z,10.4
2023-05-19T21:10:55.238Z,10.4
2023-05-19T21:13:25.932Z,10.4
2023-05-19T21:18:26.530Z,10.4
2023-05-19T21:20:57.107Z,10.4
2023-05-19T21:23:27.640Z,10.4
2023-05-19T21:26:08.309Z,10.4
2023-05-19T21:28:38.855Z,10.4
2023-05-19T21:31:09.458Z,10.4
2023-05-19T21:33:40.169Z,10.5
2023-05-19T21:36:10.764Z,10.6
2023-05-19T21:38:51.334Z,10.6
2023-05-19T21:41:21.913Z,10.7
2023-05-19T21:43:52.453Z,10.7
2023-05-19T21:46:33.089Z,10.7
2023-05-19T21:49:03.895Z,10.6
2023-05-19T21:51:34.738Z,10.6
2023-05-19T21:54:15.323Z,10.6
2023-05-19T21:59:15.946Z,10.6
2023-05-19T22:01:46.588Z,10.7
2023-05-19T22:04:18.717Z,10.7
2023-05-19T22:06:49.410Z,10.8
2023-05-19T22:09:29.995Z,10.9
2023-05-19T22:12:00.578Z,10.9
2023-05-19T22:14:31.150Z,10.9
2023-05-19T22:17:01.739Z,10.9
2023-05-19T22:19:32.381Z,11.0
2023-05-19T22:22:12.881Z,11.0
2023-05-19T22:24:44.358Z,11.0
2023-05-19T22:27:14.962Z,11.0
2023-05-19T22:29:45.542Z,11.0
2023-05-19T22:34:46.305Z,10.8
2023-05-19T22:39:56.973Z,10.6
2023-05-19T22:42:27.533Z,10.6
2023-05-19T22:44:58.080Z,10.6
2023-05-19T22:47:28.657Z,10.7
2023-05-19T22:49:59.341Z,10.7
2023-05-19T22:52:39.970Z,10.8
2023-05-19T22:55:10.576Z,10.9
2023-05-19T22:57:41.121Z,10.8
2023-05-19T23:00:11.724Z,10.9
2023-05-19T23:02:42.402Z,10.9
2023-05-19T23:05:13.346Z,10.9
2023-05-19T23:07:54.214Z,10.8
2023-05-19T23:10:24.777Z,10.8
2023-05-19T23:12:55.355Z,10.7
2023-05-19T23:15:26.036Z,10.6
2023-05-19T23:20:26.803Z,10.3
2023-05-19T23:23:07.356Z,10.1
2023-05-19T23:25:39.486Z,10.1
2023-05-19T23:28:10.076Z,10.1
2023-05-19T23:30:40.746Z,10.1
2023-05-19T23:33:11.350Z,10.0
2023-05-19T23:35:41.979Z,10.0
2023-05-19T23:38:22.547Z,9.9
2023-05-19T23:40:53.124Z,9.8
2023-05-19T23:43:23.661Z,9.7
2023-05-19T23:45:54.239Z,9.6
2023-05-19T23:48:24.925Z,9.5
2023-05-19T23:50:55.469Z,9.3
2023-05-19T23:53:36.048Z,9.3
2023-05-19T23:56:06.696Z,9.3
